createdAt,value
2018-08-16T00:00:53.695Z,101175.06
2018-08-16T00:02:58.634Z,101175.98
2018-08-16T00:05:03.625Z,101177.55
2018-08-16T00:07:08.649Z,101173.16
2018-08-16T00:09:13.739Z,101178.11
2018-08-16T00:11:19.139Z,101180.06
2018-08-16T00:13:24.158Z,101178.56
2018-08-16T00:15:29.225Z,101176.20
2018-08-16T00:17:33.988Z,101183.41
2018-08-16T00:19:39.359Z,101181.39
2018-08-16T00:21:44.487Z,101179.64
2018-08-16T00:23:49.522Z,101179.45
2018-08-16T00:25:54.500Z,101175.29
2018-08-16T00:27:59.555Z,101175.75
2018-08-16T00:30:05.905Z,101173.69
2018-08-16T00:32:10.853Z,101169.98
2018-08-16T00:34:15.656Z,101167.28
2018-08-16T00:36:20.604Z,101174.95
2018-08-16T00:38:25.697Z,101173.50
2018-08-16T00:40:30.969Z,101170.75
2018-08-16T00:42:36.093Z,101169.72
2018-08-16T00:44:41.158Z,101171.81
2018-08-16T00:46:46.022Z,101169.56
2018-08-16T00:48:51.068Z,101174.03
2018-08-16T00:50:55.916Z,101170.78
2018-08-16T00:53:00.866Z,101164.64
2018-08-16T00:55:07.307Z,101165.02
2018-08-16T00:57:12.099Z,101162.05
2018-08-16T00:59:16.904Z,101164.89
2018-08-16T01:01:21.888Z,101160.05
2018-08-16T01:03:26.988Z,101165.69
2018-08-16T01:05:32.017Z,101161.64
2018-08-16T01:07:37.013Z,101163.31
2018-08-16T01:09:42.024Z,101160.13
2018-08-16T01:11:47.123Z,101163.52
2018-08-16T01:13:52.384Z,101161.34
2018-08-16T01:15:57.202Z,101163.44
2018-08-16T01:18:02.123Z,101149.48
2018-08-16T01:20:07.573Z,101157.67
2018-08-16T01:22:12.500Z,101159.72
2018-08-16T01:24:17.518Z,101155.91
2018-08-16T01:26:22.567Z,101156.67
2018-08-16T01:28:27.491Z,101160.43
2018-08-16T01:30:32.820Z,101159.05
2018-08-16T01:32:37.684Z,101161.55
2018-08-16T01:34:42.706Z,101161.18
2018-08-16T01:36:47.631Z,101152.86
2018-08-16T01:38:52.636Z,101155.36
2018-08-16T01:40:57.991Z,101154.03
2018-08-16T01:43:02.889Z,101143.58
2018-08-16T01:45:08.436Z,101147.09
2018-08-16T01:47:13.378Z,101151.39
2018-08-16T01:49:33.883Z,101135.10
2018-08-16T01:51:38.779Z,101147.67
2018-08-16T01:53:43.632Z,101145.09
2018-08-16T01:55:48.761Z,101144.67
2018-08-16T01:57:54.198Z,101141.63
2018-08-16T01:59:59.246Z,101146.30
2018-08-16T02:02:04.817Z,101143.08
2018-08-16T02:04:09.800Z,101146.09
2018-08-16T02:06:14.882Z,101141.20
2018-08-16T02:08:19.744Z,101141.45
2018-08-16T02:10:24.989Z,101146.58
2018-08-16T02:12:29.983Z,101141.31
2018-08-16T02:14:35.000Z,101141.45
2018-08-16T02:16:40.237Z,101134.80
2018-08-16T02:18:45.585Z,101136.55
2018-08-16T02:20:50.878Z,101138.04
2018-08-16T02:22:55.842Z,101140.12
2018-08-16T02:25:00.774Z,101134.85
2018-08-16T02:27:06.175Z,101140.36
2018-08-16T02:29:11.190Z,101134.50
2018-08-16T02:31:16.218Z,101124.34
2018-08-16T02:33:21.373Z,101131.41
2018-08-16T02:35:26.438Z,101130.99
2018-08-16T02:37:31.716Z,101128.91
2018-08-16T02:39:37.168Z,101125.03
2018-08-16T02:41:42.149Z,101120.55
2018-08-16T02:43:47.150Z,101121.94
2018-08-16T02:45:52.187Z,101112.46
2018-08-16T02:47:57.017Z,101113.16
2018-08-16T02:50:01.975Z,101110.16
2018-08-16T02:52:07.325Z,101109.37
2018-08-16T02:54:12.486Z,101111.45
2018-08-16T02:56:17.667Z,101109.55
2018-08-16T02:58:22.695Z,101111.59
2018-08-16T03:00:27.607Z,101108.17
2018-08-16T03:02:32.571Z,101102.39
2018-08-16T03:04:37.669Z,101101.33
2018-08-16T03:06:42.962Z,101089.64
2018-08-16T03:08:48.055Z,101092.19
2018-08-16T03:10:53.375Z,101087.70
2018-08-16T03:12:58.840Z,101087.52
2018-08-16T03:15:03.999Z,101089.73
2018-08-16T03:17:09.141Z,101087.14
2018-08-16T03:19:14.210Z,101087.05
2018-08-16T03:21:19.468Z,101086.49
2018-08-16T03:23:24.734Z,101087.98
2018-08-16T03:25:30.030Z,101084.87
2018-08-16T03:27:34.905Z,101067.34
2018-08-16T03:29:39.903Z,101085.94
2018-08-16T03:31:44.933Z,101079.34
2018-08-16T03:33:49.872Z,101074.86
2018-08-16T03:35:54.987Z,101073.93
2018-08-16T03:37:59.902Z,101075.05
2018-08-16T03:40:05.528Z,101069.41
2018-08-16T03:42:10.477Z,101062.17
2018-08-16T03:44:15.337Z,101039.34
2018-08-16T03:46:20.133Z,101065.39
2018-08-16T03:48:25.147Z,101066.69
2018-08-16T03:50:30.065Z,101063.92
2018-08-16T03:52:35.079Z,101062.95
2018-08-16T03:54:40.091Z,101062.95
2018-08-16T03:56:45.136Z,101065.75
2018-08-16T03:58:50.030Z,101067.83
2018-08-16T04:00:55.010Z,101067.73
2018-08-16T04:02:59.841Z,101070.63
2018-08-16T04:05:05.229Z,101069.48
2018-08-16T04:07:10.166Z,101065.70
2018-08-16T04:09:15.219Z,101068.61
2018-08-16T04:11:20.404Z,101068.14
2018-08-16T04:13:25.387Z,101071.00
2018-08-16T04:15:30.240Z,101066.70
2018-08-16T04:17:36.825Z,101067.44
2018-08-16T04:19:41.847Z,101068.83
2018-08-16T04:21:46.636Z,101033.66
2018-08-16T04:23:51.578Z,101070.68
2018-08-16T04:25:56.517Z,101068.83
2018-08-16T04:28:01.482Z,101071.51
2018-08-16T04:30:07.398Z,101075.80
2018-08-16T04:32:12.318Z,101076.36
2018-08-16T04:34:17.143Z,101075.02
2018-08-16T04:36:22.103Z,101077.24
2018-08-16T04:38:27.051Z,101076.51
2018-08-16T04:40:31.982Z,101080.53
2018-08-16T04:42:36.860Z,101079.80
2018-08-16T04:44:41.812Z,101075.32
2018-08-16T04:46:46.726Z,101079.06
2018-08-16T04:48:51.681Z,101082.20
2018-08-16T04:50:56.696Z,101081.42
2018-08-16T04:53:01.871Z,101085.95
2018-08-16T04:55:08.530Z,101080.08
2018-08-16T04:57:13.531Z,101081.56
2018-08-16T04:59:18.437Z,101076.94
2018-08-16T05:01:23.615Z,101084.05
2018-08-16T05:03:28.988Z,101081.83
2018-08-16T05:05:34.802Z,101083.51
2018-08-16T05:09:53.539Z,101086.66
2018-08-16T05:11:58.652Z,101089.05
2018-08-16T05:14:04.461Z,101089.29
2018-08-16T05:16:09.496Z,101091.13
2018-08-16T05:18:14.727Z,101086.61
2018-08-16T05:20:19.636Z,101089.70
2018-08-16T05:22:24.734Z,101090.70
2018-08-16T05:24:29.831Z,101093.83
2018-08-16T05:26:34.928Z,101098.30
2018-08-16T05:28:39.874Z,101097.58
2018-08-16T05:30:48.192Z,101097.23
2018-08-16T05:32:53.417Z,101099.95
2018-08-16T05:34:58.437Z,101097.39
2018-08-16T05:37:03.655Z,101101.81
2018-08-16T05:39:11.473Z,101102.39
2018-08-16T05:41:16.455Z,101096.87
2018-08-16T05:43:21.623Z,101101.29
2018-08-16T05:45:27.267Z,101094.13
2018-08-16T05:47:32.301Z,101095.08
2018-08-16T05:49:37.260Z,101092.28
2018-08-16T05:51:42.291Z,101097.51
2018-08-16T05:53:47.475Z,101095.13
2018-08-16T05:55:52.433Z,101096.12
2018-08-16T05:57:57.273Z,101097.20
2018-08-16T06:00:02.324Z,101096.54
2018-08-16T06:02:07.642Z,101095.80
2018-08-16T06:04:12.603Z,101095.97
2018-08-16T06:06:17.584Z,101087.59
2018-08-16T06:08:22.445Z,101086.88
2018-08-16T06:10:27.509Z,101090.02
2018-08-16T06:12:32.712Z,101087.03
2018-08-16T06:14:38.037Z,101083.79
2018-08-16T06:18:53.166Z,101076.16
2018-08-16T06:20:58.142Z,101070.87
2018-08-16T06:23:03.182Z,101071.84
2018-08-16T06:25:11.787Z,101068.95
2018-08-16T06:27:17.206Z,101071.20
2018-08-16T06:29:22.161Z,101063.53
2018-08-16T06:31:27.351Z,101065.42
2018-08-16T06:33:32.442Z,101067.67
2018-08-16T06:35:37.581Z,101063.44
2018-08-16T06:37:42.620Z,101058.82
2018-08-16T06:39:47.591Z,101055.91
2018-08-16T06:41:56.540Z,101062.45
2018-08-16T06:44:01.534Z,101056.14
2018-08-16T06:46:06.533Z,101064.89
2018-08-16T06:48:11.718Z,101062.95
2018-08-16T06:50:16.715Z,101052.95
2018-08-16T06:52:23.004Z,101052.62
2018-08-16T06:54:29.607Z,101056.69
2018-08-16T06:56:35.622Z,101055.95
2018-08-16T06:58:41.612Z,101062.98
2018-08-16T07:00:46.757Z,101053.17
2018-08-16T07:02:52.093Z,101057.56
2018-08-16T07:04:57.336Z,101059.63
2018-08-16T07:07:02.518Z,101060.66
2018-08-16T07:09:11.036Z,101063.44
2018-08-16T07:11:16.513Z,101064.33
2018-08-16T07:13:21.933Z,101057.82
2018-08-16T07:15:26.920Z,101064.53
2018-08-16T07:17:31.799Z,101065.57
2018-08-16T07:19:36.948Z,101060.22
2018-08-16T07:21:41.828Z,101059.79
2018-08-16T07:23:46.737Z,101062.02
2018-08-16T07:25:52.012Z,101052.45
2018-08-16T07:27:56.921Z,101054.42
2018-08-16T07:30:02.047Z,101054.56
2018-08-16T07:32:07.192Z,101050.77
2018-08-16T07:34:12.149Z,101058.78
2018-08-16T07:36:19.151Z,101060.84
2018-08-16T07:38:24.335Z,101063.98
2018-08-16T07:40:29.560Z,101058.80
2018-08-16T07:42:34.877Z,101054.68
2018-08-16T07:44:39.987Z,101059.26
2018-08-16T07:46:45.047Z,101059.80
2018-08-16T07:48:50.194Z,101059.77
2018-08-16T07:50:55.218Z,101060.42
2018-08-16T07:53:00.182Z,101062.34
2018-08-16T07:55:05.662Z,101064.52
2018-08-16T07:57:10.593Z,101068.14
2018-08-16T07:59:15.431Z,101061.84
2018-08-16T08:01:20.615Z,101060.52
2018-08-16T08:03:25.677Z,101058.70
2018-08-16T08:05:30.570Z,101066.58
2018-08-16T08:07:35.643Z,101058.81
2018-08-16T08:09:40.577Z,101060.42
2018-08-16T08:11:45.667Z,101067.89
2018-08-16T08:13:50.592Z,101067.50
2018-08-16T08:15:55.864Z,101051.44
2018-08-16T08:18:01.007Z,101069.55
2018-08-16T08:20:08.844Z,101068.25
2018-08-16T08:22:13.866Z,101055.95
2018-08-16T08:24:18.853Z,101062.08
2018-08-16T08:26:23.759Z,101060.63
2018-08-16T08:28:28.752Z,101063.94
2018-08-16T08:30:33.739Z,101065.02
2018-08-16T08:32:39.298Z,101060.28
2018-08-16T08:34:44.259Z,101067.83
2018-08-16T08:37:05.788Z,101057.03
2018-08-16T08:39:11.346Z,101061.17
2018-08-16T08:41:18.061Z,101053.53
2018-08-16T08:43:39.569Z,101050.51
2018-08-16T08:45:46.677Z,101045.26
2018-08-16T08:47:56.867Z,101040.34
2018-08-16T08:50:01.893Z,101037.02
2018-08-16T08:52:07.749Z,101037.34
2018-08-16T08:54:56.883Z,101031.81
2018-08-16T08:57:18.348Z,101028.02
2018-08-16T08:59:23.209Z,101027.50
2018-08-16T09:01:30.378Z,101027.70
2018-08-16T09:03:35.438Z,101027.19
2018-08-16T09:05:40.347Z,101028.16
2018-08-16T09:07:54.709Z,101023.72
2018-08-16T09:11:15.091Z,101017.64
2018-08-16T09:13:40.545Z,101013.36
2018-08-16T09:15:50.587Z,101009.39
2018-08-16T09:17:55.846Z,101019.17
2018-08-16T09:20:07.153Z,101016.14
2018-08-16T09:22:12.126Z,101018.49
2018-08-16T09:24:17.223Z,101012.87
2018-08-16T09:26:27.300Z,101002.05
2018-08-16T09:28:32.377Z,101007.78
2018-08-16T09:30:53.749Z,101003.08
2018-08-16T09:33:15.288Z,101004.92
2018-08-16T09:35:20.494Z,101011.34
2018-08-16T09:37:30.656Z,100995.72
2018-08-16T09:39:35.793Z,100997.00
2018-08-16T09:41:40.826Z,101001.47
2018-08-16T09:43:45.671Z,100996.27
2018-08-16T09:47:07.752Z,101000.25
2018-08-16T09:49:13.327Z,100997.66
2018-08-16T09:51:18.440Z,100987.68
2018-08-16T09:53:23.389Z,100989.98
2018-08-16T09:55:30.720Z,100988.42
2018-08-16T09:57:35.770Z,100975.61
2018-08-16T09:59:41.012Z,100973.36
2018-08-16T10:01:46.114Z,100975.19
2018-08-16T10:03:51.169Z,100979.27
2018-08-16T10:05:56.349Z,100979.25
2018-08-16T10:08:01.609Z,100979.73
2018-08-16T10:10:06.895Z,100984.53
2018-08-16T10:12:12.738Z,100975.50
2018-08-16T10:14:18.119Z,100970.30
2018-08-16T10:16:22.937Z,100969.90
2018-08-16T10:18:28.380Z,100959.13
2018-08-16T10:20:33.825Z,100973.08
2018-08-16T10:22:38.855Z,100973.07
2018-08-16T10:24:43.845Z,100969.14
2018-08-16T10:26:48.882Z,100972.59
2018-08-16T10:28:54.218Z,100969.15
2018-08-16T10:30:59.481Z,100965.66
2018-08-16T10:33:04.842Z,100962.61
2018-08-16T10:35:09.752Z,100957.81
2018-08-16T10:37:14.940Z,100959.13
2018-08-16T10:39:19.899Z,100963.04
2018-08-16T10:41:24.751Z,100965.67
2018-08-16T10:43:29.674Z,100963.05
2018-08-16T10:45:34.522Z,100955.64
2018-08-16T10:47:39.637Z,100963.91
2018-08-16T10:49:44.569Z,100951.18
2018-08-16T10:51:49.783Z,100949.54
2018-08-16T10:53:54.783Z,100951.28
2018-08-16T10:56:00.638Z,100946.88
2018-08-16T10:58:05.840Z,100942.95
2018-08-16T11:00:10.771Z,100938.99
2018-08-16T11:02:15.742Z,100945.18
2018-08-16T11:04:20.770Z,100944.27
2018-08-16T11:06:25.901Z,100941.69
2018-08-16T11:08:30.989Z,100934.70
2018-08-16T11:10:35.906Z,100935.58
2018-08-16T11:12:40.835Z,100930.80
2018-08-16T11:14:45.843Z,100926.00
2018-08-16T11:16:50.958Z,100934.26
2018-08-16T11:18:56.076Z,100937.78
2018-08-16T11:21:01.014Z,100935.99
2018-08-16T11:23:06.211Z,100922.92
2018-08-16T11:25:12.854Z,100938.11
2018-08-16T11:27:18.069Z,100928.14
2018-08-16T11:29:23.255Z,100929.05
2018-08-16T11:31:28.290Z,100928.15
2018-08-16T11:33:33.316Z,100923.83
2018-08-16T11:35:38.512Z,100925.53
2018-08-16T11:37:43.648Z,100926.82
2018-08-16T11:39:48.847Z,100914.52
2018-08-16T11:41:54.458Z,100909.80
2018-08-16T11:43:59.488Z,100914.59
2018-08-16T11:46:04.562Z,100911.95
2018-08-16T11:48:10.000Z,100884.08
2018-08-16T11:50:15.210Z,100910.66
2018-08-16T11:52:20.301Z,100904.98
2018-08-16T11:54:25.316Z,100905.33
2018-08-16T11:56:30.710Z,100902.31
2018-08-16T11:58:36.330Z,100907.50
2018-08-16T12:00:41.519Z,100903.97
2018-08-16T12:02:46.536Z,100904.63
2018-08-16T12:04:51.461Z,100899.39
2018-08-16T12:06:56.520Z,100899.10
2018-08-16T12:09:01.315Z,100893.02
2018-08-16T12:11:07.536Z,100893.77
2018-08-16T12:13:12.358Z,100900.38
2018-08-16T12:15:17.465Z,100893.77
2018-08-16T12:17:22.620Z,100890.34
2018-08-16T12:19:27.715Z,100895.00
2018-08-16T12:21:32.499Z,100886.34
2018-08-16T12:23:37.752Z,100887.42
2018-08-16T12:25:42.582Z,100879.91
2018-08-16T12:27:47.636Z,100877.72
2018-08-16T12:29:52.398Z,100882.46
2018-08-16T12:31:57.366Z,100882.33
2018-08-16T12:34:02.488Z,100875.36
2018-08-16T12:36:07.759Z,100864.24
2018-08-16T12:38:12.749Z,100859.44
2018-08-16T12:40:17.745Z,100863.65
2018-08-16T12:42:22.892Z,100858.25
2018-08-16T12:44:27.724Z,100853.31
2018-08-16T12:46:32.645Z,100851.05
2018-08-16T12:48:37.548Z,100845.14
2018-08-16T12:50:42.291Z,100846.00
2018-08-16T12:52:47.260Z,100843.00
2018-08-16T12:54:52.485Z,100848.70
2018-08-16T12:56:57.556Z,100838.47
2018-08-16T12:59:02.831Z,100836.11
2018-08-16T13:01:07.849Z,100829.94
2018-08-16T13:03:13.141Z,100835.84
2018-08-16T13:05:18.451Z,100828.40
2018-08-16T13:07:23.325Z,100834.41
2018-08-16T13:09:28.522Z,100825.37
2018-08-16T13:11:33.645Z,100826.94
2018-08-16T13:13:38.710Z,100825.90
2018-08-16T13:15:44.090Z,100826.97
2018-08-16T13:17:49.526Z,100831.61
2018-08-16T13:19:59.400Z,100822.09
2018-08-16T13:22:04.434Z,100827.55
2018-08-16T13:24:11.052Z,100822.24
2018-08-16T13:26:19.797Z,100819.64
2018-08-16T13:28:24.654Z,100825.80
2018-08-16T13:30:29.542Z,100821.28
2018-08-16T13:32:34.310Z,100823.47
2018-08-16T13:34:39.058Z,100820.44
2018-08-16T13:36:43.995Z,100823.02
2018-08-16T13:38:48.998Z,100820.45
2018-08-16T13:40:53.887Z,100821.14
2018-08-16T13:42:59.000Z,100824.19
2018-08-16T13:45:04.185Z,100822.18
2018-08-16T13:47:09.205Z,100819.87
2018-08-16T13:49:14.116Z,100808.69
2018-08-16T13:51:19.179Z,100821.16
2018-08-16T13:53:24.050Z,100816.70
2018-08-16T13:55:28.917Z,100812.03
2018-08-16T13:57:33.828Z,100813.52
2018-08-16T13:59:39.063Z,100808.82
2018-08-16T14:01:44.022Z,100806.49
2018-08-16T14:03:48.888Z,100804.43
2018-08-16T14:05:53.775Z,100802.70
2018-08-16T14:07:58.566Z,100774.73
2018-08-16T14:10:03.414Z,100799.43
2018-08-16T14:12:08.459Z,100800.91
2018-08-16T14:14:13.417Z,100795.78
2018-08-16T14:16:18.324Z,100788.31
2018-08-16T14:18:23.420Z,100797.67
2018-08-16T14:20:28.281Z,100793.81
2018-08-16T14:22:33.404Z,100788.13
2018-08-16T14:24:38.483Z,100785.74
2018-08-16T14:26:44.520Z,100789.14
2018-08-16T14:28:49.208Z,100790.72
2018-08-16T14:30:54.104Z,100786.95
2018-08-16T14:32:58.834Z,100785.01
2018-08-16T14:35:03.698Z,100779.88
2018-08-16T14:37:08.546Z,100778.32
2018-08-16T14:39:13.821Z,100780.39
2018-08-16T14:41:18.617Z,100772.84
2018-08-16T14:43:23.464Z,100771.63
2018-08-16T14:45:28.415Z,100773.70
2018-08-16T14:47:33.320Z,100775.88
2018-08-16T14:49:38.234Z,100777.11
2018-08-16T14:51:43.015Z,100778.44
2018-08-16T14:53:47.909Z,100778.64
2018-08-16T14:55:52.696Z,100776.02
2018-08-16T14:57:57.608Z,100779.00
2018-08-16T15:00:02.842Z,100772.95
2018-08-16T15:02:07.906Z,100778.09
2018-08-16T15:04:13.039Z,100781.78
2018-08-16T15:06:19.009Z,100780.94
2018-08-16T15:08:23.973Z,100768.39
2018-08-16T15:10:28.895Z,100778.99
2018-08-16T15:12:34.009Z,100773.14
2018-08-16T15:14:38.904Z,100776.52
2018-08-16T15:16:44.448Z,100771.64
2018-08-16T15:18:49.249Z,100761.42
2018-08-16T15:20:54.245Z,100768.50
2018-08-16T15:22:59.173Z,100769.02
2018-08-16T15:25:04.553Z,100768.63
2018-08-16T15:27:09.802Z,100761.66
2018-08-16T15:29:15.247Z,100765.83
2018-08-16T15:31:20.410Z,100765.52
2018-08-16T15:33:25.446Z,100764.95
2018-08-16T15:35:30.224Z,100766.64
2018-08-16T15:37:35.399Z,100758.31
2018-08-16T15:39:40.286Z,100763.27
2018-08-16T15:41:45.179Z,100762.97
2018-08-16T15:43:50.115Z,100767.30
2018-08-16T15:45:55.279Z,100763.06
2018-08-16T15:48:00.511Z,100742.14
2018-08-16T15:50:05.595Z,100756.09
2018-08-16T15:52:10.542Z,100756.56
2018-08-16T15:54:15.397Z,100754.80
2018-08-16T15:56:21.357Z,100753.16
2018-08-16T15:58:26.723Z,100753.80
2018-08-16T16:00:32.345Z,100754.89
2018-08-16T16:02:37.410Z,100751.52
2018-08-16T16:04:42.613Z,100749.74
2018-08-16T16:06:47.747Z,100745.13
2018-08-16T16:08:53.009Z,100749.88
2018-08-16T16:11:04.503Z,100746.58
2018-08-16T16:13:10.033Z,100746.20
2018-08-16T16:15:15.145Z,100751.23
2018-08-16T16:17:20.523Z,100746.57
2018-08-16T16:19:25.398Z,100742.85
2018-08-16T16:21:30.772Z,100739.41
2018-08-16T16:23:36.767Z,100747.41
2018-08-16T16:25:42.548Z,100739.39
2018-08-16T16:27:48.446Z,100744.80
2018-08-16T16:29:53.648Z,100743.61
2018-08-16T16:31:59.005Z,100744.15
2018-08-16T16:34:03.868Z,100740.45
2018-08-16T16:36:10.315Z,100733.16
2018-08-16T16:38:15.245Z,100728.64
2018-08-16T16:40:20.131Z,100722.48
2018-08-16T16:42:25.129Z,100729.69
2018-08-16T16:44:30.489Z,100724.64
2018-08-16T16:46:35.353Z,100714.19
2018-08-16T16:48:40.293Z,100715.77
2018-08-16T16:50:45.161Z,100716.67
2018-08-16T16:52:50.093Z,100717.31
2018-08-16T16:54:54.964Z,100721.11
2018-08-16T16:56:59.867Z,100721.82
2018-08-16T16:59:04.805Z,100726.90
2018-08-16T17:01:09.997Z,100727.23
2018-08-16T17:03:14.950Z,100723.59
2018-08-16T17:05:19.907Z,100722.63
2018-08-16T17:07:24.929Z,100719.23
2018-08-16T17:09:30.204Z,100722.30
2018-08-16T17:11:35.513Z,100721.02
2018-08-16T17:13:40.544Z,100721.98
2018-08-16T17:15:45.507Z,100727.25
2018-08-16T17:17:51.640Z,100721.04
2018-08-16T17:19:57.315Z,100726.05
2018-08-16T17:22:02.320Z,100723.94
2018-08-16T17:24:07.498Z,100719.95
2018-08-16T17:26:12.406Z,100718.95
2018-08-16T17:28:17.357Z,100717.63
2018-08-16T17:30:22.242Z,100716.69
2018-08-16T17:32:28.100Z,100715.09
2018-08-16T17:34:33.219Z,100717.66
2018-08-16T17:36:38.140Z,100713.53
2018-08-16T17:38:43.132Z,100715.20
2018-08-16T17:40:48.176Z,100710.48
2018-08-16T17:42:53.070Z,100712.05
2018-08-16T17:44:58.061Z,100717.84
2018-08-16T17:47:03.159Z,100711.95
2018-08-16T17:49:08.026Z,100706.80
2018-08-16T17:51:13.504Z,100711.94
2018-08-16T17:53:18.548Z,100700.08
2018-08-16T17:55:23.623Z,100702.84
2018-08-16T17:57:28.677Z,100702.91
2018-08-16T17:59:33.812Z,100699.95
2018-08-16T18:01:58.136Z,100703.22
2018-08-16T18:04:03.287Z,100697.55
2018-08-16T18:06:08.344Z,100691.17
2018-08-16T18:08:13.407Z,100699.42
2018-08-16T18:10:18.770Z,100696.09
2018-08-16T18:12:25.236Z,100705.28
2018-08-16T18:14:30.968Z,100701.96
2018-08-16T18:16:37.016Z,100696.91
2018-08-16T18:18:42.790Z,100699.52
2018-08-16T18:20:47.839Z,100697.02
2018-08-16T18:22:53.039Z,100706.78
2018-08-16T18:24:58.186Z,100710.21
2018-08-16T18:27:03.393Z,100701.55
2018-08-16T18:29:08.729Z,100705.89
2018-08-16T18:31:13.843Z,100711.52
2018-08-16T18:33:19.562Z,100702.26
2018-08-16T18:35:24.805Z,100700.57
2018-08-16T18:37:29.982Z,100697.54
2018-08-16T18:39:34.941Z,100698.21
2018-08-16T18:41:40.202Z,100711.37
2018-08-16T18:43:45.869Z,100704.84
2018-08-16T18:45:53.039Z,100702.30
2018-08-16T18:48:00.463Z,100706.91
2018-08-16T18:50:05.945Z,100699.20
2018-08-16T18:52:10.929Z,100700.60
2018-08-16T18:54:16.061Z,100707.11
2018-08-16T18:56:21.140Z,100706.71
2018-08-16T18:58:30.202Z,100704.66
2018-08-16T19:00:35.212Z,100706.84
2018-08-16T19:02:40.594Z,100705.52
2018-08-16T19:04:46.345Z,100712.42
2018-08-16T19:06:51.303Z,100714.66
2018-08-16T19:08:56.491Z,100723.89
2018-08-16T19:11:01.836Z,100723.94
2018-08-16T19:13:06.909Z,100719.11
2018-08-16T19:15:11.889Z,100723.16
2018-08-16T19:17:17.075Z,100722.77
2018-08-16T19:19:22.423Z,100722.77
2018-08-16T19:21:27.755Z,100728.00
2018-08-16T19:23:33.207Z,100719.73
2018-08-16T19:25:38.364Z,100729.34
2018-08-16T19:27:45.952Z,100732.80
2018-08-16T19:29:51.206Z,100735.04
2018-08-16T19:31:57.729Z,100735.94
2018-08-16T19:34:02.834Z,100730.77
2018-08-16T19:36:11.027Z,100734.23
2018-08-16T19:38:18.458Z,100737.74
2018-08-16T19:40:23.873Z,100729.94
2018-08-16T19:42:29.174Z,100734.73
2018-08-16T19:44:35.515Z,100729.52
2018-08-16T19:46:42.391Z,100731.70
2018-08-16T19:48:47.929Z,100727.77
2018-08-16T19:50:53.163Z,100728.22
2018-08-16T19:52:58.484Z,100726.04
2018-08-16T19:55:04.185Z,100728.66
2018-08-16T19:57:09.536Z,100722.13
2018-08-16T19:59:14.963Z,100720.84
2018-08-16T20:01:20.367Z,100718.23
2018-08-16T20:03:25.442Z,100720.41
2018-08-16T20:05:30.501Z,100719.11
2018-08-16T20:07:36.218Z,100718.64
2018-08-16T20:09:41.276Z,100717.34
2018-08-16T20:11:46.373Z,100720.39
2018-08-16T20:13:51.483Z,100722.13
2018-08-16T20:15:57.308Z,100723.88
2018-08-16T20:18:03.507Z,100723.44
2018-08-16T20:20:11.433Z,100719.52
2018-08-16T20:22:20.166Z,100726.48
2018-08-16T20:24:26.063Z,100726.91
2018-08-16T20:26:31.061Z,100723.43
2018-08-16T20:28:36.004Z,100725.17
2018-08-16T20:30:40.980Z,100731.66
2018-08-16T20:32:45.936Z,100736.86
2018-08-16T20:34:51.166Z,100731.65
2018-08-16T20:36:56.826Z,100732.95
2018-08-16T20:39:01.916Z,100735.98
2018-08-16T20:41:09.311Z,100735.55
2018-08-16T20:43:17.133Z,100722.00
2018-08-16T20:45:23.154Z,100705.89
2018-08-16T20:47:28.529Z,100736.38
2018-08-16T20:49:34.015Z,100735.91
2018-08-16T20:51:38.904Z,100725.45
2018-08-16T20:53:45.085Z,100738.51
2018-08-16T20:55:50.922Z,100735.87
2018-08-16T20:57:56.440Z,100720.64
2018-08-16T21:00:01.688Z,100737.16
2018-08-16T21:02:06.851Z,100737.12
2018-08-16T21:04:12.120Z,100734.52
2018-08-16T21:06:17.284Z,100736.27
2018-08-16T21:08:22.579Z,100743.20
2018-08-16T21:10:27.666Z,100741.88
2018-08-16T21:12:33.688Z,100738.01
2018-08-16T21:14:38.810Z,100751.02
2018-08-16T21:16:43.905Z,100744.92
2018-08-16T21:18:49.222Z,100754.41
2018-08-16T21:20:54.366Z,100752.63
2018-08-16T21:22:59.325Z,100749.16
2018-08-16T21:25:04.475Z,100748.70
2018-08-16T21:27:09.718Z,100748.20
2018-08-16T21:29:15.500Z,100745.13
2018-08-16T21:31:20.576Z,100745.95
2018-08-16T21:33:25.762Z,100748.09
2018-08-16T21:35:32.030Z,100746.34
2018-08-16T21:37:37.983Z,100744.59
2018-08-16T21:39:42.821Z,100752.80
2018-08-16T21:41:50.184Z,100754.11
2018-08-16T21:43:57.427Z,100751.04
2018-08-16T21:46:02.325Z,100746.62
2018-08-16T21:48:07.377Z,100751.38
2018-08-16T21:50:12.250Z,100760.45
2018-08-16T21:52:17.117Z,100747.00
2018-08-16T21:54:21.936Z,100750.05
2018-08-16T21:56:26.765Z,100751.77
2018-08-16T21:58:31.600Z,100752.59
2018-08-16T22:00:50.594Z,100750.88
2018-08-16T22:02:55.440Z,100753.95
2018-08-16T22:05:00.479Z,100753.06
2018-08-16T22:07:11.421Z,100752.50
2018-08-16T22:09:16.448Z,100739.44
2018-08-16T22:11:21.376Z,100755.54
2018-08-16T22:13:26.207Z,100747.64
2018-08-16T22:15:31.200Z,100746.70
2018-08-16T22:17:36.036Z,100751.05
2018-08-16T22:19:40.884Z,100749.31
2018-08-16T22:21:45.824Z,100751.92
2018-08-16T22:23:50.658Z,100752.82
2018-08-16T22:25:55.600Z,100748.92
2018-08-16T22:28:00.549Z,100742.81
2018-08-16T22:30:05.756Z,100749.33
2018-08-16T22:32:10.680Z,100752.81
2018-08-16T22:34:15.721Z,100752.74
2018-08-16T22:36:20.840Z,100752.22
2018-08-16T22:38:25.950Z,100739.11
2018-08-16T22:40:30.873Z,100750.07
2018-08-16T22:42:35.939Z,100741.35
2018-08-16T22:44:41.012Z,100757.42
2018-08-16T22:46:45.745Z,100750.03
2018-08-16T22:48:50.620Z,100755.23
2018-08-16T22:50:55.500Z,100749.42
2018-08-16T22:53:00.562Z,100763.31
2018-08-16T22:55:05.925Z,100759.41
2018-08-16T22:57:10.976Z,100753.77
2018-08-16T22:59:15.875Z,100749.84
2018-08-16T23:01:20.871Z,100756.78
2018-08-16T23:03:25.768Z,100750.24
2018-08-16T23:05:30.749Z,100748.93
2018-08-16T23:07:35.585Z,100747.67
2018-08-16T23:09:40.425Z,100745.44
2018-08-16T23:11:45.374Z,100743.70
2018-08-16T23:13:50.337Z,100741.52
2018-08-16T23:15:55.085Z,100741.95
2018-08-16T23:18:00.134Z,100739.32
2018-08-16T23:20:05.927Z,100737.12
2018-08-16T23:22:10.845Z,100742.75
2018-08-16T23:24:15.747Z,100736.24
2018-08-16T23:26:20.772Z,100734.92
2018-08-16T23:28:25.661Z,100733.22
2018-08-16T23:30:30.530Z,100731.06
2018-08-16T23:32:35.400Z,100728.39
2018-08-16T23:34:40.253Z,100733.56
2018-08-16T23:36:46.026Z,100736.61
2018-08-16T23:38:50.938Z,100732.27
2018-08-16T23:40:55.829Z,100732.67
2018-08-16T23:43:00.920Z,100737.03
2018-08-16T23:45:06.559Z,100737.94
2018-08-16T23:47:11.541Z,100731.83
2018-08-16T23:49:16.437Z,100734.00
2018-08-16T23:51:21.205Z,100731.39
2018-08-16T23:53:26.324Z,100735.20
2018-08-16T23:55:31.101Z,100725.59
2018-08-16T23:57:35.969Z,100731.39
2018-08-16T23:59:40.779Z,100728.27
